This is the latest recevied weather packets stored in our database for station/object DL1BWU. If no packets are shown the sender has not sent any weather packets the latest 10 day(s).
| Time | Temp. | Humidity | Pressure | Rain* | Wind** | Luminosity | Snow |
|---|---|---|---|---|---|---|---|
| 1777581322 | 10.56° C | 55% | 1029.7 hPa | 0 mm | - | - | - |
| 1777580722 | 10.56° C | 55% | 1029.7 hPa | 0 mm | - | - | - |
| 1777580122 | 11.11° C | 54% | 1029.7 hPa | 0 mm | - | - | - |
| 1777579522 | 11.11° C | 54% | 1029.6 hPa | 0 mm | - | - | - |
| 1777578922 | 11.11° C | 54% | 1029.6 hPa | 0 mm | - | - | - |
| 1777578322 | 11.67° C | 54% | 1029.6 hPa | 0 mm | - | - | - |
| 1777577722 | 11.67° C | 53% | 1029.7 hPa | 0 mm | - | - | - |
| 1777577122 | 12.78° C | 51% | 1029.4 hPa | 0 mm | - | - | - |
| 1777576522 | 12.78° C | 50% | 1029.4 hPa | 0 mm | - | - | - |
| 1777575922 | 13.33° C | 50% | 1029.3 hPa | 0 mm | - | - | - |
| 1777575322 | 13.33° C | 49% | 1029.3 hPa | 0 mm | - | - | - |
| 1777574722 | 13.89° C | 48% | 1029.2 hPa | 0 mm | - | - | - |
| 1777574122 | 14.44° C | 47% | 1029.1 hPa | 0 mm | - | - | - |
| 1777573522 | 15° C | 46% | 1029.1 hPa | 0 mm | - | - | - |
| 1777572922 | 15.56° C | 45% | 1029.1 hPa | 0 mm | - | - | - |
| 1777572322 | 15.56° C | 43% | 1029.1 hPa | 0 mm | - | - | - |
| 1777571722 | 16.11° C | 43% | 1028.9 hPa | 0 mm | - | - | - |
| 1777571122 | 16.67° C | 42% | 1028.8 hPa | 0 mm | - | - | - |
| 1777570522 | 17.22° C | 41% | 1028.9 hPa | 0 mm | - | - | - |
| 1777569958 | 17.22° C | 41% | 1029.1 hPa | 0 mm | - | - | - |
| 1777569922 | 17.22° C | 41% | 1029.1 hPa | 0 mm | - | - | - |
| 1777569322 | 17.22° C | 40% | 1029 hPa | 0 mm | - | - | - |
| 1777568722 | 17.22° C | 40% | 1029.1 hPa | 0 mm | - | - | - |
| 1777568122 | 17.78° C | 40% | 1029.1 hPa | 0 mm | - | - | - |
| 1777567522 | 17.78° C | 40% | 1029.1 hPa | 0 mm | - | - | - |
* Rain latest hour (hover to see other rain measurements)
** Current wind speed in m/s (hover to see current wind gust speed)